createdAt,value
2023-04-28T00:00:01.358Z,0.0
2023-04-28T00:05:02.257Z,0.0
2023-04-28T00:10:00.629Z,0.0
2023-04-28T00:15:00.638Z,0.0
2023-04-28T00:20:00.636Z,0.0
2023-04-28T00:25:00.631Z,0.0
2023-04-28T00:30:00.660Z,0.0
2023-04-28T00:35:00.619Z,0.0
2023-04-28T00:40:00.663Z,0.0
2023-04-28T00:45:00.716Z,0.0
2023-04-28T00:50:00.656Z,0.0
2023-04-28T00:55:00.651Z,0.0
2023-04-28T01:00:00.661Z,0.0
2023-04-28T01:05:00.620Z,0.0
2023-04-28T01:10:00.624Z,0.0
2023-04-28T01:15:00.617Z,0.0
2023-04-28T01:20:00.663Z,0.0
2023-04-28T01:25:00.624Z,0.0
2023-04-28T01:30:00.654Z,0.0
2023-04-28T01:35:00.645Z,0.0
2023-04-28T01:40:00.615Z,0.0
2023-04-28T01:45:00.602Z,0.0
2023-04-28T01:50:00.603Z,0.0
2023-04-28T01:55:00.703Z,0.0
2023-04-28T02:00:00.626Z,0.0
2023-04-28T02:05:00.806Z,0.0
2023-04-28T02:10:00.603Z,0.0
2023-04-28T02:15:00.603Z,0.0
2023-04-28T02:20:00.616Z,0.0
2023-04-28T02:25:00.609Z,0.0
2023-04-28T02:30:00.645Z,0.0
2023-04-28T02:35:00.689Z,0.0
2023-04-28T02:40:00.633Z,0.0
2023-04-28T02:45:00.643Z,0.0
2023-04-28T02:50:00.582Z,0.0
2023-04-28T02:55:00.626Z,0.0
2023-04-28T03:00:00.720Z,0.0
2023-04-28T03:05:00.919Z,0.0
2023-04-28T03:10:00.631Z,0.0
2023-04-28T03:15:00.639Z,0.0
2023-04-28T03:20:00.621Z,0.0
2023-04-28T03:25:00.603Z,0.0
2023-04-28T03:30:00.688Z,0.0
2023-04-28T03:35:00.632Z,0.0
2023-04-28T03:40:00.602Z,0.0
2023-04-28T03:45:00.613Z,0.0
2023-04-28T03:50:00.665Z,0.0
2023-04-28T03:55:00.629Z,0.0
2023-04-28T04:00:00.638Z,0.0
2023-04-28T04:05:01.620Z,0.0
2023-04-28T04:10:04.893Z,0.0
2023-04-28T04:15:00.672Z,0.0
2023-04-28T04:20:00.656Z,0.0
2023-04-28T04:25:00.659Z,0.0
2023-04-28T04:30:00.643Z,0.0
2023-04-28T04:35:00.635Z,0.0
2023-04-28T04:40:00.626Z,0.0
2023-04-28T04:45:00.717Z,0.0
2023-04-28T04:50:00.618Z,1.8
2023-04-28T04:55:00.685Z,2.2
2023-04-28T05:00:00.606Z,4.7
2023-04-28T05:05:22.236Z,2.5
2023-04-28T05:10:00.639Z,4.7
2023-04-28T05:15:00.633Z,7.6
2023-04-28T05:20:00.573Z,4.7
2023-04-28T05:25:00.620Z,6.5
2023-04-28T05:30:00.621Z,5.8
2023-04-28T05:35:00.609Z,5.8
2023-04-28T05:40:00.587Z,5.8
2023-04-28T05:45:00.647Z,4.7
2023-04-28T05:50:00.658Z,5.8
2023-04-28T05:55:00.673Z,2.2
2023-04-28T06:00:00.621Z,10.8
2023-04-28T06:05:01.457Z,4.7
2023-04-28T06:10:00.631Z,4.3
2023-04-28T06:15:00.654Z,10.4
2023-04-28T06:20:00.631Z,8.6
2023-04-28T06:25:00.647Z,7.6
2023-04-28T06:30:00.688Z,15.1
2023-04-28T06:35:00.562Z,15.8
2023-04-28T06:40:00.673Z,7.6
2023-04-28T06:45:00.629Z,20.2
2023-04-28T06:50:00.672Z,13.7
2023-04-28T06:55:00.617Z,11.9
2023-04-28T07:00:00.647Z,15.8
2023-04-28T07:05:00.620Z,11.2
2023-04-28T07:10:00.754Z,14.4
2023-04-28T07:15:00.589Z,19.1
2023-04-28T07:20:00.613Z,21.6
2023-04-28T07:25:00.623Z,19.8
2023-04-28T07:30:25.574Z,15.8
2023-04-28T07:35:00.617Z,23.4
2023-04-28T07:40:00.609Z,8.3
2023-04-28T07:45:00.745Z,22.7
2023-04-28T07:50:00.673Z,10.8
2023-04-28T07:55:01.960Z,21.2
2023-04-28T08:00:00.918Z,14.4
2023-04-28T08:05:01.788Z,13.3
2023-04-28T08:10:00.644Z,13.3
2023-04-28T08:15:00.716Z,15.8
2023-04-28T08:20:00.601Z,21.2
2023-04-28T08:25:00.605Z,13.7
2023-04-28T08:30:00.706Z,18.7
2023-04-28T08:35:00.612Z,24.1
2023-04-28T08:40:00.668Z,9.7
2023-04-28T08:45:00.669Z,16.9
2023-04-28T08:50:00.618Z,15.1
2023-04-28T08:55:00.625Z,20.9
2023-04-28T09:00:00.669Z,15.5
2023-04-28T09:05:01.729Z,5.4
2023-04-28T09:10:00.766Z,14.8
2023-04-28T09:15:00.688Z,17.3
2023-04-28T09:20:00.655Z,19.1
2023-04-28T09:25:00.617Z,9.7
2023-04-28T09:30:00.587Z,23.0
2023-04-28T09:35:00.641Z,20.9
2023-04-28T09:40:00.696Z,14.8
2023-04-28T09:45:00.615Z,14.0
2023-04-28T09:50:02.126Z,21.6
2023-04-28T09:55:00.613Z,15.5
2023-04-28T10:00:00.614Z,12.6
2023-04-28T10:05:01.580Z,14.4
2023-04-28T10:10:00.617Z,16.9
2023-04-28T10:15:00.614Z,17.3
2023-04-28T10:20:00.810Z,12.2
2023-04-28T10:25:00.615Z,18.0
2023-04-28T10:30:00.609Z,14.8
2023-04-28T10:35:00.616Z,11.9
2023-04-28T10:40:00.720Z,20.9
2023-04-28T10:45:00.721Z,16.6
2023-04-28T10:50:00.604Z,14.4
2023-04-28T10:55:21.960Z,6.5
2023-04-28T11:00:00.618Z,13.0
2023-04-28T11:05:01.014Z,15.5
2023-04-28T11:10:00.606Z,22.0
2023-04-28T11:15:00.681Z,16.6
2023-04-28T11:20:00.642Z,14.4
2023-04-28T11:25:00.616Z,14.4
2023-04-28T11:30:00.728Z,15.1
2023-04-28T11:35:00.654Z,24.1
2023-04-28T11:40:00.641Z,17.3
2023-04-28T11:45:00.632Z,16.9
2023-04-28T11:50:00.607Z,14.4
2023-04-28T11:55:01.159Z,8.3
2023-04-28T12:00:00.637Z,5.0
2023-04-28T12:05:00.680Z,4.7
2023-04-28T12:10:00.574Z,8.3
2023-04-28T12:15:00.658Z,6.8
2023-04-28T12:20:00.634Z,9.0
2023-04-28T12:25:00.739Z,15.8
2023-04-28T12:30:00.618Z,16.9
2023-04-28T12:35:00.662Z,8.3
2023-04-28T12:40:00.613Z,14.8
2023-04-28T12:45:00.669Z,8.3
2023-04-28T12:50:00.628Z,13.3
2023-04-28T12:55:00.647Z,16.6
2023-04-28T13:00:00.693Z,8.3
2023-04-28T13:05:00.868Z,16.9
2023-04-28T13:10:00.694Z,15.5
2023-04-28T13:15:00.605Z,12.2
2023-04-28T13:20:00.608Z,17.3
2023-04-28T13:25:00.677Z,23.0
2023-04-28T13:30:00.688Z,13.0
2023-04-28T13:35:00.627Z,15.8
2023-04-28T13:40:00.649Z,14.8
2023-04-28T13:45:00.741Z,5.0
2023-04-28T13:50:00.636Z,7.2
2023-04-28T13:55:00.561Z,17.3
2023-04-28T14:00:00.696Z,4.3
2023-04-28T14:05:00.679Z,11.9
2023-04-28T14:10:00.659Z,7.9
2023-04-28T14:15:00.681Z,8.3
2023-04-28T14:20:00.785Z,7.9
2023-04-28T14:25:00.664Z,9.4
2023-04-28T14:30:01.002Z,16.6
2023-04-28T14:35:00.616Z,5.4
2023-04-28T14:40:00.841Z,11.9
2023-04-28T14:45:00.642Z,17.3
2023-04-28T14:50:00.731Z,19.4
2023-04-28T14:55:00.653Z,10.4
2023-04-28T15:00:00.871Z,10.4
2023-04-28T15:05:01.114Z,15.8
2023-04-28T15:10:00.834Z,12.2
2023-04-28T15:15:00.705Z,16.9
2023-04-28T15:20:00.691Z,9.0
2023-04-28T15:25:00.762Z,11.2
2023-04-28T15:30:00.637Z,12.2
2023-04-28T15:35:00.705Z,14.0
2023-04-28T15:40:00.635Z,6.1
2023-04-28T15:45:00.736Z,14.0
2023-04-28T15:50:00.689Z,8.6
2023-04-28T15:55:00.683Z,5.4
2023-04-28T16:00:00.660Z,11.2
2023-04-28T16:05:00.696Z,13.7
2023-04-28T16:10:00.679Z,12.6
2023-04-28T16:15:00.745Z,7.6
2023-04-28T16:20:00.652Z,3.2
2023-04-28T16:25:00.741Z,3.6
2023-04-28T16:30:00.703Z,9.4
2023-04-28T16:35:00.625Z,4.7
2023-04-28T16:40:00.675Z,0.0
2023-04-28T16:45:00.691Z,6.8
2023-04-28T16:50:00.667Z,1.4
2023-04-28T16:55:00.697Z,0.0
2023-04-28T17:00:00.626Z,6.1
2023-04-28T17:05:00.668Z,1.8
2023-04-28T17:10:00.634Z,2.2
2023-04-28T17:15:00.691Z,2.5
2023-04-28T17:20:00.656Z,6.8
2023-04-28T17:25:00.677Z,2.5
2023-04-28T17:30:00.761Z,2.2
2023-04-28T17:35:00.632Z,2.5
2023-04-28T17:40:00.645Z,0.0
2023-04-28T17:45:00.671Z,9.0
2023-04-28T17:50:00.697Z,4.7
2023-04-28T17:55:00.618Z,4.7
2023-04-28T18:00:00.740Z,5.4
2023-04-28T18:05:00.825Z,10.4
2023-04-28T18:10:00.839Z,7.2
2023-04-28T18:15:00.624Z,9.4
2023-04-28T18:20:00.804Z,6.5
2023-04-28T18:25:00.642Z,16.6
2023-04-28T18:30:00.855Z,7.6
2023-04-28T18:35:00.762Z,6.1
2023-04-28T18:40:00.651Z,5.4
2023-04-28T18:45:00.634Z,6.8
2023-04-28T18:50:00.692Z,1.8
2023-04-28T18:55:00.638Z,4.0
2023-04-28T19:00:00.702Z,5.4
2023-04-28T19:05:00.930Z,5.4
2023-04-28T19:10:00.654Z,3.6
2023-04-28T19:15:00.617Z,3.6
2023-04-28T19:20:00.627Z,1.8
2023-04-28T19:25:00.645Z,3.2
2023-04-28T19:30:00.648Z,7.9
2023-04-28T19:35:00.640Z,4.3
2023-04-28T19:40:00.608Z,0.0
2023-04-28T19:45:00.627Z,0.0
2023-04-28T19:50:00.687Z,1.8
2023-04-28T19:55:00.737Z,0.0
2023-04-28T20:00:00.661Z,0.0
2023-04-28T20:05:00.640Z,0.0
2023-04-28T20:10:00.606Z,4.0
2023-04-28T20:15:01.410Z,2.5
2023-04-28T20:20:00.615Z,5.0
2023-04-28T20:25:00.663Z,5.8
2023-04-28T20:30:00.676Z,13.0
2023-04-28T20:35:00.687Z,10.1
2023-04-28T20:40:00.671Z,0.0
2023-04-28T20:45:00.647Z,7.9
2023-04-28T20:50:00.637Z,4.7
2023-04-28T20:55:00.631Z,2.5
2023-04-28T21:00:00.815Z,4.0
2023-04-28T21:05:00.620Z,3.6
2023-04-28T21:10:00.634Z,4.7
2023-04-28T21:15:00.606Z,2.2
2023-04-28T21:20:00.663Z,4.3
2023-04-28T21:25:00.755Z,0.0
2023-04-28T21:30:00.632Z,5.0
2023-04-28T21:35:00.609Z,4.7
2023-04-28T21:40:00.819Z,2.5
2023-04-28T21:45:00.632Z,6.5
2023-04-28T21:50:00.631Z,6.1
2023-04-28T21:55:00.616Z,2.2
2023-04-28T22:00:00.723Z,7.2
2023-04-28T22:05:00.578Z,1.8
2023-04-28T22:10:00.625Z,1.4
2023-04-28T22:15:00.659Z,2.9
2023-04-28T22:20:00.672Z,0.0
2023-04-28T22:25:00.634Z,0.0
2023-04-28T22:30:00.681Z,3.6
2023-04-28T22:35:00.617Z,8.6
2023-04-28T22:40:00.636Z,8.3
2023-04-28T22:45:03.851Z,8.6
2023-04-28T22:50:00.639Z,4.3
2023-04-28T22:55:00.648Z,5.0
2023-04-28T23:00:00.680Z,0.0
2023-04-28T23:05:00.747Z,6.5
2023-04-28T23:10:00.757Z,7.9
2023-04-28T23:15:00.654Z,10.1
2023-04-28T23:20:00.600Z,6.1
2023-04-28T23:25:00.695Z,8.3
2023-04-28T23:30:00.636Z,5.4
2023-04-28T23:35:00.579Z,7.9
2023-04-28T23:40:00.622Z,6.1
2023-04-28T23:45:00.614Z,11.5
2023-04-28T23:50:00.648Z,2.2
2023-04-28T23:55:00.616Z,5.4
